Time;durP1;ratioP1;P1;durP2;ratioP2;P2;SDS_P1;SDS_P2;PMS_P1;PMS_P2;Temp;Humidity;BMP_temperature;BMP_pressure;BME280_temperature;BME280_humidity;BME280_pressure;Samples;Min_cycle;Max_cycle;Signal;HPM_P1;HPM_P2
2023/01/08 00:01:17;;;;;;;22.80;5.32;;;;;;;7.61;100.00;97302.31;5133050;27;20042;-84
2023/01/08 00:03:44;;;;;;;20.92;3.97;;;;;;;7.90;100.00;97330.41;5132827;27;20051;-83
2023/01/08 00:06:14;;;;;;;14.07;3.92;;;;;;;7.28;100.00;97239.00;5128783;27;20100;-83
2023/01/08 00:08:41;;;;;;;23.52;4.45;;;;;;;7.73;100.00;97293.50;5129283;27;20069;-83
2023/01/08 00:11:08;;;;;;;16.83;4.18;;;;;;;7.84;100.00;97279.63;5148389;27;20091;-84
2023/01/08 00:13:35;;;;;;;20.73;5.05;;;;;;;7.82;100.00;97270.28;5145958;27;20059;-85
2023/01/08 00:16:10;;;;;;;20.30;4.30;;;;;;;7.72;100.00;97246.75;5145157;27;20046;-84
2023/01/08 00:18:37;;;;;;;26.25;4.97;;;;;;;7.76;100.00;97277.66;5151878;27;20050;-83
2023/01/08 00:21:05;;;;;;;24.10;4.88;;;;;;;8.17;100.00;97270.00;5129245;27;20468;-84
2023/01/08 00:23:33;;;;;;;25.73;3.92;;;;;;;8.01;100.00;97246.16;5128400;27;20049;-85
2023/01/08 00:26:01;;;;;;;28.50;5.22;;;;;;;7.49;100.00;97214.78;5137129;27;20115;-84
2023/01/08 00:28:28;;;;;;;20.80;4.72;;;;;;;7.65;100.00;97229.97;5132926;27;20046;-83
2023/01/08 00:30:55;;;;;;;24.75;5.15;;;;;;;7.71;100.00;97208.66;5133214;27;20042;-83
2023/01/08 00:33:22;;;;;;;26.33;4.55;;;;;;;7.73;100.00;97188.53;5152193;27;20042;-83
2023/01/08 00:35:49;;;;;;;19.90;4.43;;;;;;;7.88;100.00;97168.19;5151843;27;20393;-83
2023/01/08 00:38:15;;;;;;;17.02;4.18;;;;;;;7.85;100.00;97182.31;5128999;27;20046;-83
2023/01/08 00:40:42;;;;;;;18.98;3.58;;;;;;;7.98;100.00;97209.00;5127966;27;20046;-83
2023/01/08 00:43:09;;;;;;;16.75;4.10;;;;;;;7.89;100.00;97175.88;5140180;27;20059;-83
2023/01/08 00:45:36;;;;;;;21.27;5.45;;;;;;;7.41;100.00;97130.34;5134389;27;20050;-83
2023/01/08 00:48:02;;;;;;;20.00;4.07;;;;;;;8.37;100.00;97247.47;5129380;27;20086;-83
2023/01/08 00:50:30;;;;;;;24.67;5.13;;;;;;;7.67;100.00;97191.66;5135577;27;20051;-83
2023/01/08 00:52:56;;;;;;;24.73;4.65;;;;;;;7.69;100.00;97171.53;5145722;27;20058;-83
2023/01/08 00:55:23;;;;;;;19.92;4.20;;;;;;;7.79;100.00;97194.06;5149575;27;20050;-83
2023/01/08 00:57:50;;;;;;;19.58;4.05;;;;;;;7.78;100.00;97199.41;5130668;27;20999;-83
2023/01/08 01:00:17;;;;;;;22.50;4.18;;;;;;;7.46;100.00;97184.63;5145090;27;20043;-83
2023/01/08 01:02:44;;;;;;;25.15;5.03;;;;;;;7.85;100.00;97229.19;5154419;27;20742;-83
2023/01/08 01:05:14;;;;;;;22.95;5.20;;;;;;;8.20;100.00;97248.91;5140730;27;20047;-84
2023/01/08 01:07:41;;;;;;;40.22;6.25;;;;;;;7.86;100.00;97194.38;5150408;27;20046;-84
2023/01/08 01:10:09;;;;;;;25.00;5.40;;;;;;;7.92;100.00;97191.25;5133309;27;20573;-84
2023/01/08 01:12:37;;;;;;;25.05;5.45;;;;;;;7.76;100.00;97188.28;5129070;27;20049;-84
2023/01/08 01:15:10;;;;;;;26.08;5.47;;;;;;;7.70;100.00;97157.53;5141270;27;20100;-84
2023/01/08 01:17:38;;;;;;;26.60;4.68;;;;;;;7.64;100.00;97140.66;5141334;27;20472;-84
2023/01/08 01:20:07;;;;;;;21.20;5.95;;;;;;;7.51;100.00;97129.63;5125568;27;20051;-83
2023/01/08 01:22:35;;;;;;;21.83;5.13;;;;;;;7.87;100.00;97190.81;5132622;27;20069;-84
2023/01/08 01:25:02;;;;;;;33.50;5.90;;;;;;;7.65;100.00;97150.13;5126472;27;20480;-84
2023/01/08 01:27:29;;;;;;;31.42;5.95;;;;;;;7.64;100.00;97139.81;5142408;27;20054;-84
2023/01/08 01:29:55;;;;;;;25.20;5.50;;;;;;;7.77;100.00;97143.91;5132322;27;20049;-83
2023/01/08 01:32:22;;;;;;;25.90;5.63;;;;;;;7.46;100.00;97129.97;5149068;27;20460;-83
2023/01/08 01:34:49;;;;;;;22.63;6.15;;;;;;;7.49;100.00;97131.50;5153086;27;20062;-83
2023/01/08 01:37:16;;;;;;;25.20;4.72;;;;;;;7.32;100.00;97109.47;5128532;27;20050;-85
2023/01/08 01:39:42;;;;;;;27.80;5.40;;;;;;;7.32;100.00;97109.47;5142424;27;20055;-83
2023/01/08 01:42:38;;;;;;;21.00;5.03;;;;;;;7.51;100.00;97130.44;5131991;27;20051;-83
2023/01/08 01:45:01;;;;;;;30.77;6.05;;;;;;;7.63;100.00;97159.00;5150558;27;20061;-83
2023/01/08 01:47:37;;;;;;;25.15;6.40;;;;;;;7.84;100.00;97179.81;5146753;27;20429;-83
2023/01/08 01:50:07;;;;;;;23.10;5.07;;;;;;;7.37;100.00;97061.28;5135681;27;20053;-83
2023/01/08 01:52:39;;;;;;;27.10;5.88;;;;;;;7.68;100.00;97162.84;5129361;27;20142;-84
2023/01/08 01:55:08;;;;;;;27.45;6.00;;;;;;;7.46;100.00;97122.16;5132470;27;20047;-84
2023/01/08 01:57:37;;;;;;;33.13;6.60;;;;;;;7.64;100.00;97125.03;5137834;27;20054;-84
2023/01/08 02:00:07;;;;;;;33.00;6.75;;;;;;;7.80;100.00;97163.63;5153265;27;20050;-84
2023/01/08 02:02:34;;;;;;;24.70;5.70;;;;;;;7.74;100.00;97097.28;5151653;27;20047;-84
2023/01/08 02:05:01;;;;;;;26.25;6.55;;;;;;;7.49;100.00;97098.50;5153191;27;20506;-84
2023/01/08 02:07:55;;;;;;;31.73;6.65;;;;;;;7.99;100.00;97176.78;5145352;27;20468;-84
2023/01/08 02:10:36;;;;;;;21.40;5.35;;;;;;;7.88;100.00;97136.94;5133729;27;20050;-83
2023/01/08 02:13:15;;;;;;;17.83;4.60;;;;;;;8.04;100.00;97157.31;5121627;27;20042;-83
2023/01/08 02:16:07;;;;;;;26.45;4.35;;;;;;;7.87;100.00;97150.94;5139274;27;20054;-83
2023/01/08 02:18:46;;;;;;;18.05;3.92;;;;;;;7.74;100.00;97145.94;5114412;27;20407;-85
2023/01/08 02:21:31;;;;;;;14.65;2.95;;;;;;;7.72;100.00;97181.66;5134374;27;20046;-84
2023/01/08 02:24:15;;;;;;;19.80;3.70;;;;;;;7.62;100.00;97162.56;5127133;27;20647;-85
2023/01/08 02:26:45;;;;;;;20.02;5.40;;;;;;;7.83;100.00;97152.16;5121600;27;20566;-84
2023/01/08 02:29:16;;;;;;;15.60;3.10;;;;;;;8.11;100.00;97168.88;5135346;27;20050;-85
2023/01/08 02:31:43;;;;;;;13.85;3.33;;;;;;;7.60;100.00;97147.06;5132891;27;20046;-84
2023/01/08 02:34:11;;;;;;;18.05;3.95;;;;;;;7.59;100.00;97138.41;5151794;27;20482;-85
2023/01/08 02:36:43;;;;;;;24.60;4.57;;;;;;;8.10;100.00;97219.34;5135016;27;20059;-85
2023/01/08 02:39:31;;;;;;;23.25;5.25;;;;;;;7.98;100.00;97237.66;5119691;27;20768;-83
2023/01/08 02:42:07;;;;;;;18.67;3.85;;;;;;;8.16;100.00;97242.25;5129696;27;20054;-83
2023/01/08 02:44:40;;;;;;;17.67;3.47;;;;;;;7.77;100.00;97159.50;5131740;28;20043;-83
2023/01/08 02:47:14;;;;;;;13.25;2.95;;;;;;;8.26;100.00;97216.28;5141011;27;20050;-83
2023/01/08 02:49:45;;;;;;;14.40;3.17;;;;;;;7.95;100.00;97187.56;5123552;28;20070;-83
2023/01/08 02:52:15;;;;;;;19.30;3.28;;;;;;;7.96;100.00;97182.22;5151347;27;20498;-83
2023/01/08 02:54:45;;;;;;;16.83;3.33;;;;;;;7.83;100.00;97168.59;5135470;27;20054;-83
2023/01/08 02:57:15;;;;;;;14.45;3.78;;;;;;;7.94;100.00;97236.25;5121104;27;20078;-83
2023/01/08 02:59:45;;;;;;;19.85;4.68;;;;;;;7.44;100.00;97157.91;5125918;28;20050;-83
2023/01/08 03:02:12;;;;;;;15.77;3.15;;;;;;;7.51;100.00;97134.81;5148410;27;20070;-83
2023/01/08 03:04:48;;;;;;;17.80;3.25;;;;;;;7.96;100.00;97204.84;5135125;27;20365;-83
2023/01/08 03:07:15;;;;;;;15.40;2.92;;;;;;;7.88;100.00;97200.28;5151806;27;20058;-83
2023/01/08 03:09:42;;;;;;;13.13;3.03;;;;;;;7.76;100.00;97194.31;5131273;28;20043;-85
2023/01/08 03:12:32;;;;;;;18.30;3.17;;;;;;;7.67;100.00;97192.47;5145267;27;20069;-83
2023/01/08 03:15:06;;;;;;;13.30;3.13;;;;;;;7.80;100.00;97253.00;5142723;27;20051;-84
2023/01/08 03:17:38;;;;;;;11.20;2.42;;;;;;;7.65;100.00;97216.97;5148123;27;20054;-83
2023/01/08 03:20:10;;;;;;;22.10;3.53;;;;;;;7.62;100.00;97225.88;5122800;28;20633;-83
2023/01/08 03:22:41;;;;;;;11.63;2.97;;;;;;;7.43;100.00;97177.06;5129220;27;20043;-84
2023/01/08 03:25:08;;;;;;;10.18;2.75;;;;;;;7.92;100.00;97248.56;5135579;27;20046;-84
2023/01/08 03:27:42;;;;;;;10.35;3.20;;;;;;;7.34;100.00;97198.66;5153565;27;20099;-84
2023/01/08 03:30:10;;;;;;;13.02;2.85;;;;;;;7.52;100.00;97217.16;5152547;27;20373;-83
2023/01/08 03:32:40;;;;;;;13.15;2.92;;;;;;;7.43;100.00;97221.31;5119770;28;20477;-83
2023/01/08 03:35:11;;;;;;;12.93;2.35;;;;;;;7.47;100.00;97222.75;5139919;27;20412;-83
2023/01/08 03:37:41;;;;;;;11.10;2.70;;;;;;;7.50;100.00;97206.84;5135418;27;20047;-86
2023/01/08 03:40:23;;;;;;;13.23;2.58;;;;;;;7.28;100.00;97217.34;5136074;27;20464;-85
2023/01/08 03:42:50;;;;;;;13.65;2.72;;;;;;;7.42;100.00;97224.88;5135871;27;20059;-83
2023/01/08 03:45:17;;;;;;;13.43;3.05;;;;;;;7.32;100.00;97196.16;5132400;27;20488;-83
2023/01/08 03:47:46;;;;;;;10.38;2.10;;;;;;;7.36;100.00;97214.97;5126880;27;20057;-83
2023/01/08 03:50:17;;;;;;;14.60;3.03;;;;;;;7.38;100.00;97218.25;5122571;27;20408;-84
2023/01/08 03:52:44;;;;;;;11.95;2.58;;;;;;;7.72;100.00;97238.94;5138029;27;20046;-84
2023/01/08 03:55:11;;;;;;;13.93;2.42;;;;;;;7.58;100.00;97240.91;5139049;27;20047;-83
2023/01/08 03:57:38;;;;;;;13.98;3.63;;;;;;;7.52;100.00;97249.19;5145611;27;20046;-83
2023/01/08 04:00:05;;;;;;;14.73;2.60;;;;;;;7.31;100.00;97243.13;5142174;27;20477;-83
2023/01/08 04:02:32;;;;;;;15.98;2.50;;;;;;;7.62;100.00;97270.13;5129978;27;20053;-83
2023/01/08 04:04:59;;;;;;;15.20;2.75;;;;;;;7.21;100.00;97233.47;5156722;27;20126;-83
2023/01/08 04:07:25;;;;;;;11.98;2.58;;;;;;;7.38;100.00;97255.53;5135389;27;20039;-83
2023/01/08 04:09:52;;;;;;;10.98;2.45;;;;;;;7.53;100.00;97260.47;5136143;27;20116;-83
2023/01/08 04:12:19;;;;;;;11.25;2.65;;;;;;;7.23;100.00;97230.75;5136992;27;20046;-86
2023/01/08 04:14:45;;;;;;;13.32;3.15;;;;;;;7.16;100.00;97247.78;5157163;27;20042;-83
2023/01/08 04:17:12;;;;;;;11.20;2.95;;;;;;;7.56;100.00;97301.84;5142852;27;20043;-84
2023/01/08 04:19:39;;;;;;;13.57;4.10;;;;;;;7.16;100.00;97250.38;5138735;27;20042;-83
2023/01/08 04:22:09;;;;;;;17.20;2.95;;;;;;;7.15;100.00;97252.16;5155946;27;20054;-83
2023/01/08 04:24:36;;;;;;;14.88;2.78;;;;;;;7.31;100.00;97256.13;5132069;27;20055;-84
2023/01/08 04:27:03;;;;;;;24.02;4.85;;;;;;;7.31;100.00;97284.75;5132724;27;20480;-83
2023/01/08 04:29:29;;;;;;;21.33;3.58;;;;;;;7.27;100.00;97262.53;5157862;27;20403;-84
2023/01/08 04:31:56;;;;;;;15.05;3.67;;;;;;;7.07;100.00;97244.13;5147707;27;20046;-85
2023/01/08 04:34:23;;;;;;;20.20;4.13;;;;;;;7.34;100.00;97321.78;5157722;27;20058;-84
2023/01/08 04:36:49;;;;;;;20.60;3.47;;;;;;;6.98;100.00;97263.88;5137246;27;20047;-83
2023/01/08 04:39:16;;;;;;;14.30;2.75;;;;;;;7.06;100.00;97257.25;5132278;27;20499;-85
2023/01/08 04:41:43;;;;;;;20.75;3.92;;;;;;;7.13;100.00;97271.44;5137601;27;20039;-85
2023/01/08 04:44:10;;;;;;;24.13;4.60;;;;;;;7.28;100.00;97296.25;5157730;27;20068;-85
2023/01/08 04:46:37;;;;;;;15.68;3.45;;;;;;;7.18;100.00;97277.09;5139591;27;20046;-84
2023/01/08 04:49:03;;;;;;;17.83;3.40;;;;;;;7.50;100.00;97328.38;5157958;27;20070;-84
2023/01/08 04:51:30;;;;;;;20.38;3.90;;;;;;;7.13;100.00;97300.06;5154297;27;20047;-83
2023/01/08 04:53:57;;;;;;;18.20;4.80;;;;;;;6.87;100.00;97256.13;5138883;27;20049;-83
2023/01/08 04:56:24;;;;;;;15.18;3.50;;;;;;;7.01;100.00;97283.63;5156910;27;20046;-83
2023/01/08 04:58:51;;;;;;;15.70;5.28;;;;;;;6.90;100.00;97232.44;5157843;27;20047;-83
2023/01/08 05:01:21;;;;;;;15.73;3.63;;;;;;;7.15;100.00;97274.75;5135287;27;20038;-83
2023/01/08 05:03:55;;;;;;;21.75;4.78;;;;;;;7.34;100.00;97298.34;5138151;27;20067;-84
2023/01/08 05:06:23;;;;;;;13.43;3.30;;;;;;;6.98;100.00;97247.47;5158372;27;20053;-84
2023/01/08 05:08:50;;;;;;;15.07;2.83;;;;;;;7.09;100.00;97263.06;5157598;27;20053;-82
2023/01/08 05:11:17;;;;;;;17.55;3.95;;;;;;;7.30;100.00;97317.78;5156726;27;20035;-83
2023/01/08 05:13:47;;;;;;;16.58;3.63;;;;;;;7.26;100.00;97292.94;5133518;27;20622;-83
2023/01/08 05:16:14;;;;;;;20.13;4.65;;;;;;;6.95;100.00;97266.72;5156384;27;20066;-84
2023/01/08 05:18:42;;;;;;;13.65;3.28;;;;;;;7.16;100.00;97290.22;5136852;27;20061;-85
2023/01/08 05:21:09;;;;;;;11.52;3.47;;;;;;;7.16;100.00;97292.00;5148452;27;20047;-83
2023/01/08 05:23:36;;;;;;;14.48;3.22;;;;;;;6.91;100.00;97286.13;5137434;27;20103;-83
2023/01/08 05:26:05;;;;;;;12.07;2.60;;;;;;;7.38;100.00;97344.03;5135381;27;20057;-83
2023/01/08 05:28:32;;;;;;;11.45;3.17;;;;;;;7.29;100.00;97333.50;5137338;27;20596;-83
2023/01/08 05:30:59;;;;;;;17.73;3.58;;;;;;;7.00;100.00;97302.78;5136089;27;20380;-83
2023/01/08 05:33:26;;;;;;;15.30;3.17;;;;;;;7.22;100.00;97351.38;5136118;27;20613;-83
2023/01/08 05:35:53;;;;;;;16.55;2.78;;;;;;;6.93;100.00;97302.44;5122852;27;20051;-83
2023/01/08 05:38:20;;;;;;;16.42;3.47;;;;;;;6.86;100.00;97293.47;5132454;27;20045;-83
2023/01/08 05:40:47;;;;;;;14.18;3.65;;;;;;;6.72;100.00;97296.28;5147965;27;20042;-83
2023/01/08 05:43:13;;;;;;;16.20;3.85;;;;;;;6.92;100.00;97313.78;5152140;27;20051;-83
2023/01/08 05:45:40;;;;;;;15.77;3.53;;;;;;;6.80;100.00;97309.53;5145795;27;20415;-84
2023/01/08 05:48:07;;;;;;;28.95;4.25;;;;;;;7.09;100.00;97355.88;5129372;27;20061;-83
2023/01/08 05:50:34;;;;;;;17.65;4.35;;;;;;;6.99;100.00;97348.78;5150452;27;20420;-83
2023/01/08 05:53:06;;;;;;;16.58;3.75;;;;;;;6.61;100.00;97312.72;5143984;27;20047;-85
2023/01/08 05:55:33;;;;;;;23.27;4.05;;;;;;;6.81;100.00;97329.38;5124478;27;20057;-86
2023/01/08 05:58:02;;;;;;;24.23;4.60;;;;;;;6.75;100.00;97327.28;5136064;27;20053;-85
2023/01/08 06:00:30;;;;;;;17.20;4.00;;;;;;;6.59;100.00;97302.44;5147404;27;20130;-85
2023/01/08 06:02:57;;;;;;;19.70;3.83;;;;;;;7.06;100.00;97359.53;5135707;27;20042;-83
2023/01/08 06:05:24;;;;;;;18.30;3.88;;;;;;;6.55;100.00;97307.97;5133096;27;20099;-83
2023/01/08 06:07:51;;;;;;;16.45;3.40;;;;;;;6.53;100.00;97317.66;5132638;27;20060;-84
2023/01/08 06:10:18;;;;;;;23.33;4.25;;;;;;;6.49;100.00;97340.44;5138619;27;20703;-83
2023/01/08 06:12:44;;;;;;;15.07;3.75;;;;;;;6.56;100.00;97309.63;5147489;27;20051;-83
2023/01/08 06:15:11;;;;;;;19.95;4.38;;;;;;;6.86;100.00;97363.66;5145364;27;20065;-85
2023/01/08 06:17:38;;;;;;;23.02;4.72;;;;;;;6.52;100.00;97361.03;5138389;27;20576;-84
2023/01/08 06:20:05;;;;;;;22.60;4.28;;;;;;;6.76;100.00;97371.31;5138988;27;20499;-83
2023/01/08 06:22:33;;;;;;;24.38;5.75;;;;;;;6.31;100.00;97310.66;5152105;27;20729;-83
2023/01/08 06:25:00;;;;;;;18.83;4.32;;;;;;;6.43;100.00;97340.94;5125485;27;20054;-84
2023/01/08 06:27:27;;;;;;;20.60;3.88;;;;;;;6.46;100.00;97344.13;5133210;27;20051;-84
2023/01/08 06:29:54;;;;;;;18.80;3.90;;;;;;;6.45;100.00;97365.03;5126604;27;20051;-84
2023/01/08 06:32:21;;;;;;;21.00;4.85;;;;;;;6.21;100.00;97332.09;5131478;27;20050;-84
2023/01/08 06:34:47;;;;;;;17.58;4.40;;;;;;;6.42;100.00;97371.25;5135443;27;20039;-84
2023/01/08 06:37:14;;;;;;;23.92;5.38;;;;;;;6.32;100.00;97367.72;5153885;27;20053;-83
2023/01/08 06:39:41;;;;;;;23.63;5.03;;;;;;;6.50;100.00;97401.91;5135781;27;20043;-84
2023/01/08 06:42:07;;;;;;;19.60;4.00;;;;;;;6.18;100.00;97347.09;5135572;27;20042;-84
2023/01/08 06:44:34;;;;;;;17.20;4.40;;;;;;;6.04;100.00;97341.16;5154863;27;20054;-83
2023/01/08 06:47:01;;;;;;;21.75;4.22;;;;;;;6.27;100.00;97344.66;5139467;27;20047;-83
2023/01/08 06:49:28;;;;;;;31.60;5.47;;;;;;;6.69;100.00;97411.72;5137502;27;20055;-84
2023/01/08 06:51:56;;;;;;;22.73;4.78;;;;;;;6.47;100.00;97386.53;5136667;27;20042;-84
2023/01/08 06:54:22;;;;;;;31.63;6.97;;;;;;;6.24;100.00;97385.63;5155605;27;20075;-83
2023/01/08 06:56:49;;;;;;;28.02;5.35;;;;;;;6.23;100.00;97397.78;5151748;27;20468;-83
2023/01/08 06:59:20;;;;;;;23.38;5.20;;;;;;;6.13;100.00;97357.03;5143883;27;20441;-84
2023/01/08 07:01:46;;;;;;;23.42;5.45;;;;;;;6.41;100.00;97407.75;5135211;27;20066;-84
2023/01/08 07:04:13;;;;;;;26.38;5.97;;;;;;;6.25;100.00;97379.47;5132083;27;20053;-83
2023/01/08 07:06:40;;;;;;;32.60;5.03;;;;;;;6.42;100.00;97373.03;5135843;27;20046;-84
2023/01/08 07:09:11;;;;;;;32.08;5.55;;;;;;;6.59;100.00;97385.59;5139925;27;20051;-84
2023/01/08 07:11:39;;;;;;;39.05;8.20;;;;;;;6.49;100.00;97378.63;5150463;27;20035;-84
2023/01/08 07:14:06;;;;;;;20.95;5.07;;;;;;;6.45;100.00;97358.03;5151165;27;20047;-84
2023/01/08 07:16:33;;;;;;;31.25;6.15;;;;;;;6.50;100.00;97362.06;5135109;27;20551;-83
2023/01/08 07:18:59;;;;;;;27.30;5.65;;;;;;;6.52;100.00;97378.41;5141137;27;20051;-83
2023/01/08 07:21:26;;;;;;;24.95;5.75;;;;;;;6.35;100.00;97351.06;5140364;27;20042;-85
2023/01/08 07:23:53;;;;;;;25.65;5.50;;;;;;;6.40;100.00;97360.16;5143089;27;20058;-86
2023/01/08 07:26:20;;;;;;;26.20;5.10;;;;;;;6.49;100.00;97389.00;5160592;27;20050;-85
2023/01/08 07:28:46;;;;;;;26.30;5.55;;;;;;;6.30;100.00;97343.59;5141414;27;20058;-85
2023/01/08 07:31:13;;;;;;;25.65;4.75;;;;;;;6.49;100.00;97366.44;5158008;27;20050;-85
2023/01/08 07:33:40;;;;;;;28.02;6.97;;;;;;;6.52;100.00;97375.78;5140767;27;20047;-85
2023/01/08 07:36:07;;;;;;;32.58;6.88;;;;;;;6.49;100.00;97389.84;5155793;27;20038;-83
2023/01/08 07:38:34;;;;;;;27.10;5.72;;;;;;;6.63;100.00;97381.00;5127490;27;20073;-85
2023/01/08 07:41:00;;;;;;;27.52;6.28;;;;;;;6.29;100.00;97336.75;5138443;27;20049;-85
2023/01/08 07:43:28;;;;;;;32.75;6.82;;;;;;;6.31;100.00;97366.03;5139232;27;20046;-85
2023/01/08 07:45:56;;;;;;;30.27;6.13;;;;;;;6.05;100.00;97318.59;5157517;27;20107;-84
2023/01/08 07:48:23;;;;;;;26.85;5.30;;;;;;;6.35;100.00;97380.44;5139408;27;20117;-85
2023/01/08 07:50:50;;;;;;;26.58;5.03;;;;;;;6.31;100.00;97363.44;5138698;27;20584;-85
2023/01/08 07:53:16;;;;;;;24.30;5.47;;;;;;;6.11;100.00;97335.50;5139262;27;20047;-84
2023/01/08 07:55:43;;;;;;;32.70;6.93;;;;;;;6.47;100.00;97392.53;5139292;27;20050;-84
2023/01/08 07:58:12;;;;;;;32.30;6.63;;;;;;;6.55;100.00;97392.00;5158456;27;20046;-84
2023/01/08 08:00:38;;;;;;;28.80;5.18;;;;;;;6.33;100.00;97366.75;5124804;27;20511;-85
2023/01/08 08:03:10;;;;;;;30.98;5.70;;;;;;;6.49;100.00;97376.84;5139848;27;20042;-85
2023/01/08 08:05:37;;;;;;;27.27;5.07;;;;;;;6.27;100.00;97359.44;5157648;27;20407;-85
2023/01/08 08:08:09;;;;;;;31.17;6.65;;;;;;;6.34;100.00;97354.56;5154228;27;20734;-85
2023/01/08 08:10:37;;;;;;;29.15;6.07;;;;;;;5.91;100.00;97322.19;5150177;27;20042;-85
2023/01/08 08:13:04;;;;;;;22.70;5.30;;;;;;;6.64;100.00;97414.69;5131006;27;20178;-85
2023/01/08 08:15:41;;;;;;;29.83;6.05;;;;;;;6.41;100.00;97397.34;5133498;27;20055;-85
2023/01/08 08:18:11;;;;;;;36.55;7.50;;;;;;;6.08;100.00;97347.78;5128308;27;20050;-85
2023/01/08 08:20:38;;;;;;;30.60;6.97;;;;;;;6.14;100.00;97367.28;5156283;27;20125;-85
2023/01/08 08:23:13;;;;;;;28.15;5.38;;;;;;;6.36;100.00;97376.09;5138878;27;20484;-84
2023/01/08 08:25:41;;;;;;;44.15;7.65;;;;;;;6.15;100.00;97357.72;5136672;27;20049;-84
2023/01/08 08:28:12;;;;;;;21.08;4.72;;;;;;;6.71;100.00;97393.41;5135038;27;20392;-85
2023/01/08 08:30:39;;;;;;;41.25;7.65;;;;;;;6.74;100.00;97421.81;5135240;27;20046;-85
2023/01/08 08:33:08;;;;;;;33.50;8.07;;;;;;;6.81;100.00;97403.00;5138097;27;20091;-84
2023/01/08 08:35:36;;;;;;;28.30;6.25;;;;;;;6.69;100.00;97370.13;5135549;27;20046;-84
2023/01/08 08:38:04;;;;;;;36.55;6.82;;;;;;;6.55;100.00;97324.41;5135891;27;20047;-84
2023/01/08 08:40:31;;;;;;;26.58;6.13;;;;;;;6.89;100.00;97350.44;5147180;27;20618;-84
2023/01/08 08:43:03;;;;;;;22.60;5.63;;;;;;;6.00;100.00;97235.00;5130822;27;20054;-84
2023/01/08 08:45:30;;;;;;;36.20;8.00;;;;;;;6.57;100.00;97340.72;5145725;27;20058;-85
2023/01/08 08:47:57;;;;;;;35.60;5.63;;;;;;;6.61;100.00;97336.09;5139523;27;20408;-85
2023/01/08 08:50:24;;;;;;;35.75;5.57;;;;;;;6.63;100.00;97323.81;5155457;27;20078;-85
2023/01/08 08:52:54;;;;;;;22.30;5.90;;;;;;;6.74;100.00;97336.00;5137997;27;20043;-85
2023/01/08 08:55:24;;;;;;;26.80;6.22;;;;;;;6.61;100.00;97323.94;5157026;27;20051;-85
2023/01/08 08:57:51;;;;;;;29.15;6.88;;;;;;;7.00;100.00;97365.22;5127005;27;20043;-85
2023/01/08 09:00:18;;;;;;;36.15;7.05;;;;;;;7.10;100.00;97373.97;5134991;27;20051;-86
2023/01/08 09:02:49;;;;;;;32.00;7.07;;;;;;;6.99;100.00;97350.53;5138048;27;20405;-86
2023/01/08 09:05:16;;;;;;;36.95;5.75;;;;;;;6.75;100.00;97337.66;5156331;27;20047;-85
2023/01/08 09:07:45;;;;;;;26.55;5.10;;;;;;;6.84;100.00;97357.75;5151773;27;20122;-85
2023/01/08 09:10:12;;;;;;;35.33;6.85;;;;;;;6.83;100.00;97353.50;5135383;27;20054;-85
2023/01/08 09:12:41;;;;;;;25.02;7.88;;;;;;;6.65;100.00;97348.75;5137609;27;20042;-85
2023/01/08 09:15:09;;;;;;;22.38;6.47;;;;;;;7.15;100.00;97371.00;5140278;27;20050;-85
2023/01/08 09:17:36;;;;;;;29.58;6.22;;;;;;;6.78;100.00;97327.84;5131100;27;20050;-84
2023/01/08 09:20:05;;;;;;;30.80;6.45;;;;;;;7.20;100.00;97390.50;5150482;27;20054;-86
2023/01/08 09:22:32;;;;;;;27.02;5.97;;;;;;;6.61;100.00;97317.91;5135459;27;20046;-85
2023/01/08 09:24:59;;;;;;;35.45;6.75;;;;;;;6.92;100.00;97367.56;5155587;27;20051;-85
2023/01/08 09:27:28;;;;;;;54.13;8.68;;;;;;;6.86;100.00;97387.06;5126391;27;20054;-86
2023/01/08 09:29:55;;;;;;;25.52;5.93;;;;;;;7.05;100.00;97383.91;5137214;27;20042;-86
2023/01/08 09:32:21;;;;;;;28.75;5.90;;;;;;;6.87;100.00;97377.50;5150392;27;20043;-84
2023/01/08 09:34:48;;;;;;;25.27;6.25;;;;;;;7.04;100.00;97393.47;5122306;27;20165;-85
2023/01/08 09:37:15;;;;;;;34.75;7.00;;;;;;;7.30;100.00;97415.84;5133589;27;20054;-85
2023/01/08 09:39:42;;;;;;;22.80;5.63;;;;;;;7.21;100.00;97394.78;5136763;27;20049;-85
2023/01/08 09:42:14;;;;;;;23.58;5.65;;;;;;;6.90;100.00;97377.25;5135073;27;20043;-85
2023/01/08 09:44:45;;;;;;;23.75;6.10;;;;;;;6.62;100.00;97367.19;5130092;27;20506;-85
2023/01/08 09:47:25;;;;;;;28.95;5.60;;;;;;;6.83;100.00;97379.50;5143178;27;20047;-85
2023/01/08 09:49:59;;;;;;;35.15;5.78;;;;;;;7.06;100.00;97427.16;5129087;27;20039;-85
2023/01/08 09:52:26;;;;;;;19.08;5.53;;;;;;;7.00;100.00;97402.47;5135232;27;20042;-85
2023/01/08 09:54:53;;;;;;;34.03;6.75;;;;;;;6.64;100.00;97354.09;5133150;27;20042;-85
2023/01/08 09:57:21;;;;;;;25.33;6.28;;;;;;;6.64;100.00;97354.91;5132304;27;20046;-85
2023/01/08 09:59:48;;;;;;;31.08;6.65;;;;;;;7.19;100.00;97419.28;5126392;27;20047;-86
2023/01/08 10:02:21;;;;;;;27.77;5.03;;;;;;;6.98;100.00;97387.94;5131406;27;20047;-86
2023/01/08 10:04:52;;;;;;;;;;;;;;;7.25;100.00;97418.78;5143813;27;20043;-86
2023/01/08 10:07:23;;;;;;;28.50;6.18;;;;;;;6.81;100.00;97365.78;5145692;27;20379;-85
2023/01/08 10:09:51;;;;;;;22.75;7.05;;;;;;;7.02;100.00;97399.75;5137850;27;20066;-85
2023/01/08 10:12:29;;;;;;;24.85;5.18;;;;;;;6.99;100.00;97384.34;5146399;27;20038;-85
2023/01/08 10:15:12;;;;;;;28.38;5.93;;;;;;;6.82;100.00;97360.47;5155290;27;20054;-85
2023/01/08 10:17:53;;;;;;;31.20;6.65;;;;;;;7.05;100.00;97355.28;5132166;27;20043;-85
2023/01/08 10:20:22;;;;;;;28.35;6.32;;;;;;;6.78;100.00;97332.22;5143393;27;20043;-85
2023/01/08 10:22:55;;;;;;;26.75;5.45;;;;;;;7.46;100.00;97389.47;5133022;27;20130;-84
2023/01/08 10:25:24;;;;;;;31.97;6.33;;;;;;;7.23;100.00;97405.06;5128323;27;20077;-85
2023/01/08 10:27:58;;;;;;;27.08;4.70;;;;;;;7.11;100.00;97333.16;5126470;27;20283;-84
2023/01/08 10:30:33;;;;;;;26.88;5.13;;;;;;;7.50;100.00;97409.91;5131864;27;20047;-84
2023/01/08 10:33:16;;;;;;;32.25;7.00;;;;;;;7.23;100.00;97353.84;5137599;27;20031;-84
2023/01/08 10:35:52;;;;;;;31.23;6.43;;;;;;;7.13;100.00;97360.72;5148489;27;20411;-85
2023/01/08 10:38:29;;;;;;;24.52;5.22;;;;;;;7.27;100.00;97366.63;5152478;27;20039;-84
2023/01/08 10:41:02;;;;;;;30.73;5.75;;;;;;;7.28;100.00;97355.25;5135160;27;20046;-85
2023/01/08 10:43:40;;;;;;;36.42;8.07;;;;;;;7.68;100.00;97430.25;5131161;28;20040;-85
2023/01/08 10:46:20;;;;;;;30.85;5.97;;;;;;;7.27;100.00;97351.03;5115703;28;20043;-84
2023/01/08 10:48:55;;;;;;;35.35;8.40;;;;;;;7.35;100.00;97351.25;5147366;27;20528;-85
2023/01/08 10:51:25;;;;;;;46.35;6.88;;;;;;;7.79;100.00;97396.34;5133486;27;20055;-85
2023/01/08 10:53:54;;;;;;;31.27;6.97;;;;;;;8.03;100.00;97392.75;5131573;27;20051;-84
2023/01/08 10:56:22;;;;;;;32.90;6.30;;;;;;;7.88;100.00;97393.03;5130576;27;20054;-85
2023/01/08 10:58:50;;;;;;;38.10;7.30;;;;;;;7.71;100.00;97376.16;5137749;27;20055;-85
2023/01/08 11:01:30;;;;;;;33.10;6.10;;;;;;;7.55;100.00;97360.09;5137695;27;20046;-86
2023/01/08 11:04:00;;;;;;;28.65;6.03;;;;;;;7.79;100.00;97360.75;5137871;27;20054;-87
2023/01/08 11:06:43;;;;;;;32.47;6.75;;;;;;;7.72;100.00;97367.41;5133042;27;20066;-86
2023/01/08 11:09:27;;;;;;;30.83;5.90;;;;;;;7.74;100.00;97372.47;5122663;27;20051;-86
2023/01/08 11:11:54;;;;;;;34.17;7.88;;;;;;;7.68;100.00;97358.16;5124538;27;20047;-86
2023/01/08 11:14:29;;;;;;;37.30;6.93;;;;;;;7.72;100.00;97361.34;5124813;27;20484;-86
2023/01/08 11:16:57;;;;;;;23.58;5.82;;;;;;;7.34;100.00;97272.34;5124827;27;20054;-87
2023/01/08 11:19:29;;;;;;;34.38;6.85;;;;;;;7.88;100.00;97364.38;5147091;27;20050;-86
2023/01/08 11:21:58;;;;;;;34.47;7.13;;;;;;;7.72;100.00;97343.09;5139680;27;20828;-86
2023/01/08 11:24:32;;;;;;;28.15;5.60;;;;;;;8.13;100.00;97389.28;5136907;27;20054;-85
2023/01/08 11:27:07;;;;;;;27.35;7.55;;;;;;;7.90;100.00;97344.25;5119396;27;20056;-85
2023/01/08 11:29:46;;;;;;;29.88;5.78;;;;;;;8.15;100.00;97356.09;5127759;27;20055;-86
2023/01/08 11:32:32;;;;;;;31.33;7.40;;;;;;;8.32;100.00;97375.59;5132511;27;20437;-85
2023/01/08 11:35:24;;;;;;;32.90;6.10;;;;;;;8.17;100.00;97367.22;5126159;27;20058;-85